Time;durP1;ratioP1;P1;durP2;ratioP2;P2;SDS_P1;SDS_P2;PMS_P1;PMS_P2;Temp;Humidity;BMP_temperature;BMP_pressure;BME280_temperature;BME280_humidity;BME280_pressure;Samples;Min_cycle;Max_cycle;Signal;HPM_P1;HPM_P2
2022/10/21 00:01:24;;;;;;;154.23;40.70;;;11.00;99.90;;;;;;5034217;28;20045;-69
2022/10/21 00:03:50;;;;;;;137.07;39.50;;;11.10;99.90;;;;;;5031458;28;20411;-69
2022/10/21 00:06:15;;;;;;;119.45;36.35;;;11.00;99.90;;;;;;5065315;28;20060;-69
2022/10/21 00:08:41;;;;;;;135.70;39.65;;;11.00;99.90;;;;;;5036022;28;20037;-69
2022/10/21 00:11:08;;;;;;;189.45;39.75;;;11.10;99.90;;;;;;5034715;28;20733;-69
2022/10/21 00:13:35;;;;;;;119.45;37.80;;;11.00;99.90;;;;;;5037966;28;20036;-69
2022/10/21 00:16:01;;;;;;;123.10;38.97;;;11.00;99.90;;;;;;5034686;28;20124;-69
2022/10/21 00:18:28;;;;;;;157.07;40.53;;;11.10;99.90;;;;;;5039352;28;20514;-69
2022/10/21 00:20:53;;;;;;;144.10;40.65;;;11.10;99.90;;;;;;5052967;28;20071;-69
2022/10/21 00:23:19;;;;;;;130.25;38.90;;;11.10;99.90;;;;;;5040766;28;20124;-68
2022/10/21 00:25:45;;;;;;;140.10;38.30;;;11.00;99.90;;;;;;5040751;28;20471;-69
2022/10/21 00:28:10;;;;;;;139.07;39.40;;;11.10;99.90;;;;;;5038345;28;20450;-69
2022/10/21 00:30:36;;;;;;;140.48;38.75;;;11.10;99.90;;;;;;5037762;28;20266;-69
2022/10/21 00:33:01;;;;;;;159.40;42.20;;;11.10;99.90;;;;;;5038117;28;21202;-69
2022/10/21 00:35:27;;;;;;;138.40;39.80;;;11.00;99.90;;;;;;5032601;28;20142;-69
2022/10/21 00:37:53;;;;;;;160.48;40.42;;;11.10;99.90;;;;;;5037237;28;20120;-69
2022/10/21 00:40:18;;;;;;;125.65;38.55;;;11.10;99.90;;;;;;5040306;28;20040;-69
2022/10/21 00:42:44;;;;;;;158.90;41.25;;;11.10;99.90;;;;;;5035469;28;20048;-69
2022/10/21 00:45:20;;;;;;;155.05;40.72;;;11.10;99.90;;;;;;5033950;28;20484;-69
2022/10/21 00:47:48;;;;;;;156.20;39.95;;;11.20;99.90;;;;;;5039524;28;20037;-69
2022/10/21 00:50:33;;;;;;;133.68;39.75;;;11.10;99.90;;;;;;5044267;28;20045;-69
2022/10/21 00:53:00;;;;;;;144.52;41.28;;;11.10;99.90;;;;;;5043531;28;20037;-69
2022/10/21 00:55:29;;;;;;;155.98;41.35;;;11.10;99.90;;;;;;5040305;28;20044;-69
2022/10/21 00:57:56;;;;;;;158.35;42.05;;;11.10;99.90;;;;;;5044579;28;20460;-69
2022/10/21 01:00:21;;;;;;;145.90;41.20;;;11.10;99.90;;;;;;5046408;28;20032;-69
2022/10/21 01:02:47;;;;;;;145.52;41.25;;;11.10;99.90;;;;;;5042735;28;20647;-69
2022/10/21 01:05:14;;;;;;;148.88;40.72;;;11.10;99.90;;;;;;5041147;28;20041;-69
2022/10/21 01:07:40;;;;;;;189.93;44.42;;;11.20;99.90;;;;;;5042147;28;20098;-69
2022/10/21 01:10:06;;;;;;;146.68;42.00;;;11.20;99.90;;;;;;5041598;28;20036;-69
2022/10/21 01:13:10;;;;;;;130.60;39.40;;;11.10;99.90;;;;;;5042789;28;20033;-69
2022/10/21 01:15:38;;;;;;;157.57;42.53;;;11.10;99.90;;;;;;5043919;28;20045;-69
2022/10/21 01:18:11;;;;;;;128.75;39.30;;;11.10;99.90;;;;;;5044202;28;20184;-69
2022/10/21 01:21:12;;;;;;;136.52;39.35;;;11.10;99.90;;;;;;5042486;28;20396;-69
2022/10/21 01:23:46;;;;;;;146.18;41.95;;;11.20;99.90;;;;;;5029060;28;20053;-69
2022/10/21 01:26:34;;;;;;;135.45;40.50;;;11.10;99.90;;;;;;5042878;28;20029;-70
2022/10/21 01:29:12;;;;;;;152.88;41.58;;;11.20;99.90;;;;;;5036663;28;20033;-69
2022/10/21 01:31:43;;;;;;;195.50;45.40;;;11.20;99.90;;;;;;5041838;28;20041;-69
2022/10/21 01:34:25;;;;;;;119.60;38.65;;;11.30;99.90;;;;;;5034491;28;20049;-69
2022/10/21 01:36:57;;;;;;;134.35;39.55;;;11.30;99.90;;;;;;5042042;28;20044;-69
2022/10/21 01:39:34;;;;;;;150.27;40.28;;;11.40;99.90;;;;;;5035947;28;20401;-69
2022/10/21 01:42:20;;;;;;;182.70;42.20;;;11.40;99.90;;;;;;5075145;28;20041;-69
2022/10/21 01:45:11;;;;;;;134.80;40.08;;;11.40;99.90;;;;;;5037727;28;20045;-69
2022/10/21 01:47:41;;;;;;;173.98;43.08;;;11.50;99.90;;;;;;5036182;28;20131;-69
2022/10/21 01:50:09;;;;;;;147.48;41.35;;;11.50;99.90;;;;;;5044114;28;20109;-69
2022/10/21 01:52:36;;;;;;;159.88;41.25;;;11.60;99.90;;;;;;5069620;28;20033;-68
2022/10/21 01:55:07;;;;;;;165.10;41.72;;;11.60;99.90;;;;;;5040017;28;20053;-68
2022/10/21 01:57:40;;;;;;;195.38;43.83;;;11.60;99.90;;;;;;5033093;28;20068;-68
2022/10/21 02:00:07;;;;;;;154.73;41.92;;;11.60;99.90;;;;;;5036705;28;20045;-68
2022/10/21 02:02:37;;;;;;;143.43;41.15;;;11.70;99.90;;;;;;5036649;28;20045;-68
2022/10/21 02:05:26;;;;;;;146.82;42.85;;;11.70;99.90;;;;;;5065406;28;20045;-67
2022/10/21 02:07:53;;;;;;;145.35;42.03;;;11.90;99.90;;;;;;5069502;28;20044;-68
2022/10/21 02:10:19;;;;;;;147.13;42.03;;;11.80;99.90;;;;;;5039052;28;20096;-68
2022/10/21 02:12:48;;;;;;;145.52;41.38;;;11.90;99.90;;;;;;5034324;28;20037;-65
2022/10/21 02:15:15;;;;;;;149.10;40.92;;;12.00;99.90;;;;;;5035335;28;20124;-64
2022/10/21 02:17:45;;;;;;;207.93;42.97;;;12.00;99.90;;;;;;5032678;28;20037;-64
2022/10/21 02:20:13;;;;;;;201.40;44.13;;;12.00;99.90;;;;;;5065627;28;20044;-65
2022/10/21 02:22:41;;;;;;;170.48;47.13;;;12.10;99.90;;;;;;5036772;28;20051;-65
2022/10/21 02:25:26;;;;;;;175.55;44.17;;;12.00;99.90;;;;;;5071485;28;20049;-66
2022/10/21 02:27:53;;;;;;;177.00;43.58;;;12.20;99.90;;;;;;5039045;28;20124;-66
2022/10/21 02:30:19;;;;;;;163.77;44.08;;;12.20;99.90;;;;;;5040260;28;20487;-66
2022/10/21 02:32:56;;;;;;;179.75;42.40;;;12.20;99.90;;;;;;5039056;28;20052;-66
2022/10/21 02:35:28;;;;;;;135.70;40.55;;;12.20;99.90;;;;;;5037306;28;20481;-66
2022/10/21 02:38:11;;;;;;;227.00;45.40;;;12.20;99.90;;;;;;5036808;28;20463;-66
2022/10/21 02:40:43;;;;;;;160.63;41.65;;;12.30;99.90;;;;;;5038455;28;20472;-66
2022/10/21 02:43:14;;;;;;;136.68;41.45;;;12.30;99.90;;;;;;5039508;28;20091;-66
2022/10/21 02:45:40;;;;;;;168.32;44.72;;;12.30;99.90;;;;;;5039013;28;20484;-66
2022/10/21 02:48:05;;;;;;;139.68;39.63;;;12.20;99.90;;;;;;5034307;28;21267;-67
2022/10/21 02:50:31;;;;;;;145.65;42.75;;;12.30;99.90;;;;;;5036911;28;20032;-67
2022/10/21 02:52:57;;;;;;;167.57;42.53;;;12.30;99.90;;;;;;5036950;28;20041;-67
2022/10/21 02:55:23;;;;;;;166.50;40.97;;;12.30;99.90;;;;;;5066415;28;20064;-67
2022/10/21 02:57:48;;;;;;;144.90;40.15;;;12.30;99.90;;;;;;5034560;28;20329;-67
2022/10/21 03:00:14;;;;;;;160.52;41.72;;;12.40;99.90;;;;;;5036496;28;20173;-67
2022/10/21 03:02:41;;;;;;;181.93;45.28;;;12.40;99.90;;;;;;5066656;28;20029;-67
2022/10/21 03:05:08;;;;;;;140.95;40.03;;;12.40;99.90;;;;;;5039007;28;20446;-68
2022/10/21 03:07:34;;;;;;;202.73;43.88;;;12.40;99.90;;;;;;5033459;28;20066;-68
2022/10/21 03:10:00;;;;;;;151.48;41.40;;;12.30;99.90;;;;;;5034009;28;20029;-68
2022/10/21 03:12:25;;;;;;;151.38;40.65;;;12.40;99.90;;;;;;5030824;28;20083;-67
2022/10/21 03:14:51;;;;;;;194.60;43.50;;;12.40;99.90;;;;;;5037606;28;20376;-67
2022/10/21 03:17:16;;;;;;;147.98;40.75;;;12.40;99.90;;;;;;5036331;28;20068;-67
2022/10/21 03:19:42;;;;;;;211.68;44.53;;;12.40;99.90;;;;;;5034334;28;20112;-68
2022/10/21 03:22:07;;;;;;;131.93;39.17;;;12.40;99.90;;;;;;5033626;28;20524;-68
2022/10/21 03:24:33;;;;;;;129.93;38.05;;;12.50;99.90;;;;;;5071442;28;20099;-68
2022/10/21 03:26:59;;;;;;;125.68;37.35;;;12.40;99.90;;;;;;5037546;28;20048;-68
2022/10/21 03:29:24;;;;;;;147.65;40.33;;;12.40;99.90;;;;;;5067465;28;20068;-68
2022/10/21 03:31:50;;;;;;;138.32;38.13;;;12.40;99.90;;;;;;5036587;28;20487;-68
2022/10/21 03:34:15;;;;;;;148.98;40.22;;;12.40;99.90;;;;;;5042165;28;20041;-68
2022/10/21 03:36:41;;;;;;;149.27;41.03;;;12.50;99.90;;;;;;5033456;28;20045;-68
2022/10/21 03:39:06;;;;;;;134.93;38.97;;;12.50;99.90;;;;;;5033245;28;20510;-68
2022/10/21 03:41:32;;;;;;;141.57;39.50;;;12.60;99.90;;;;;;5034172;28;20064;-68
2022/10/21 03:43:58;;;;;;;139.23;40.63;;;12.60;99.90;;;;;;5016199;28;20086;-68
2022/10/21 03:46:23;;;;;;;170.18;42.80;;;12.50;99.90;;;;;;5030208;28;20037;-68
2022/10/21 03:48:49;;;;;;;139.40;38.75;;;12.60;99.90;;;;;;5035497;28;20087;-68
2022/10/21 03:51:14;;;;;;;122.15;37.10;;;12.60;99.90;;;;;;5071313;28;20686;-69
2022/10/21 03:53:40;;;;;;;147.57;38.80;;;12.70;99.90;;;;;;5044138;28;20037;-68
2022/10/21 03:56:06;;;;;;;161.07;40.47;;;12.50;99.90;;;;;;5043926;28;20039;-68
2022/10/21 03:58:34;;;;;;;160.63;41.38;;;12.60;99.90;;;;;;5037124;28;20479;-68
2022/10/21 04:01:00;;;;;;;153.80;38.83;;;12.60;99.90;;;;;;5029913;28;20498;-69
2022/10/21 04:03:25;;;;;;;209.70;44.13;;;12.70;99.90;;;;;;5040829;28;20040;-68
2022/10/21 04:05:51;;;;;;;356.10;43.17;;;12.60;99.90;;;;;;5041128;28;20107;-69
2022/10/21 04:08:17;;;;;;;154.95;37.55;;;12.60;99.90;;;;;;5035143;28;20156;-68
2022/10/21 04:10:44;;;;;;;132.20;39.28;;;12.70;99.90;;;;;;5037857;28;20261;-68
2022/10/21 04:13:10;;;;;;;151.68;38.10;;;12.70;99.90;;;;;;5066109;28;20427;-69
2022/10/21 04:15:35;;;;;;;139.85;37.35;;;12.60;99.90;;;;;;5033314;28;20034;-68
2022/10/21 04:18:01;;;;;;;167.52;41.03;;;12.60;99.90;;;;;;5054485;28;20387;-68
2022/10/21 04:20:27;;;;;;;142.10;38.40;;;12.60;99.90;;;;;;5035011;28;20095;-68
2022/10/21 04:22:52;;;;;;;265.52;41.63;;;12.60;99.90;;;;;;5039641;28;20043;-68
2022/10/21 04:25:18;;;;;;;170.32;42.40;;;12.60;99.90;;;;;;5035321;28;20107;-69
2022/10/21 04:27:43;;;;;;;136.52;38.45;;;12.50;99.90;;;;;;5040759;28;20037;-68
2022/10/21 04:30:09;;;;;;;140.30;39.10;;;12.40;99.90;;;;;;5034760;28;20095;-68
2022/10/21 04:32:35;;;;;;;161.82;42.25;;;12.40;99.90;;;;;;5034737;28;20607;-68
2022/10/21 04:35:00;;;;;;;179.43;40.72;;;12.40;99.90;;;;;;5035380;28;20038;-68
2022/10/21 04:37:26;;;;;;;128.35;37.08;;;12.40;99.90;;;;;;5032590;28;20511;-68
2022/10/21 04:39:52;;;;;;;167.57;39.90;;;12.30;99.90;;;;;;5037383;28;20488;-68
2022/10/21 04:42:17;;;;;;;139.23;38.30;;;12.30;99.90;;;;;;5036652;28;20048;-68
2022/10/21 04:44:43;;;;;;;173.45;39.75;;;12.40;99.90;;;;;;5035655;28;20040;-69
2022/10/21 04:47:08;;;;;;;214.85;42.00;;;12.40;99.90;;;;;;5034311;28;20075;-68
2022/10/21 04:49:34;;;;;;;159.00;40.92;;;12.40;99.90;;;;;;5039112;28;20035;-69
2022/10/21 04:51:59;;;;;;;144.52;39.75;;;12.40;99.90;;;;;;5043642;28;20029;-68
2022/10/21 04:54:25;;;;;;;268.80;44.50;;;12.30;99.90;;;;;;5044532;28;20052;-68
2022/10/21 04:56:50;;;;;;;154.80;40.60;;;12.40;99.90;;;;;;5044677;28;20090;-68
2022/10/21 04:59:16;;;;;;;143.65;38.45;;;12.30;99.90;;;;;;5041154;28;20081;-68
2022/10/21 05:01:42;;;;;;;184.35;41.15;;;12.40;99.90;;;;;;5039806;28;20052;-68
2022/10/21 05:04:07;;;;;;;214.93;43.03;;;12.30;99.90;;;;;;5037060;28;20522;-68
2022/10/21 05:06:33;;;;;;;191.63;42.05;;;12.30;99.90;;;;;;5039936;28;20033;-68
2022/10/21 05:08:58;;;;;;;147.10;40.47;;;12.30;99.90;;;;;;5037486;28;20037;-68
2022/10/21 05:11:24;;;;;;;175.93;40.72;;;12.30;99.90;;;;;;5035514;28;20155;-69
2022/10/21 05:13:49;;;;;;;315.13;45.65;;;12.30;99.90;;;;;;5038272;28;20045;-68
2022/10/21 05:16:15;;;;;;;159.60;40.63;;;12.20;99.90;;;;;;5067769;28;20103;-68
2022/10/21 05:18:41;;;;;;;267.65;45.33;;;12.20;99.90;;;;;;5033124;28;20041;-68
2022/10/21 05:21:06;;;;;;;196.85;42.58;;;12.20;99.90;;;;;;5039528;28;20095;-68
2022/10/21 05:23:32;;;;;;;178.82;42.25;;;12.30;99.90;;;;;;5039092;28;20091;-68
2022/10/21 05:25:57;;;;;;;172.55;42.10;;;12.20;99.90;;;;;;5039945;28;20083;-68
2022/10/21 05:28:24;;;;;;;151.70;39.13;;;12.10;99.90;;;;;;5035183;28;20493;-68
2022/10/21 05:30:51;;;;;;;150.23;37.75;;;12.20;99.90;;;;;;5037561;28;20032;-68
2022/10/21 05:33:16;;;;;;;144.30;38.20;;;12.00;99.90;;;;;;5040522;28;20434;-67
2022/10/21 05:35:42;;;;;;;150.93;39.95;;;12.10;99.90;;;;;;5038182;28;20041;-68
2022/10/21 05:38:08;;;;;;;155.13;40.72;;;12.00;99.90;;;;;;5035013;28;20037;-67
2022/10/21 05:40:33;;;;;;;137.85;39.20;;;12.10;99.90;;;;;;5034075;28;20037;-67
2022/10/21 05:42:59;;;;;;;159.63;40.05;;;12.10;99.90;;;;;;5034456;28;20040;-68
2022/10/21 05:45:25;;;;;;;138.00;38.50;;;12.10;99.90;;;;;;5039382;28;20041;-67
2022/10/21 05:47:51;;;;;;;148.88;39.20;;;12.10;99.90;;;;;;5041857;28;20529;-68
2022/10/21 05:50:17;;;;;;;152.85;39.67;;;12.20;99.90;;;;;;5039495;28;20120;-68
2022/10/21 05:52:42;;;;;;;169.38;40.80;;;12.20;99.90;;;;;;5043125;28;20076;-69
2022/10/21 05:55:09;;;;;;;151.50;38.83;;;12.20;99.90;;;;;;5040696;28;20455;-69
2022/10/21 05:57:36;;;;;;;167.93;41.78;;;12.20;99.90;;;;;;5043184;28;20076;-69
2022/10/21 06:00:03;;;;;;;160.13;42.28;;;12.30;99.90;;;;;;5043982;28;20045;-67
2022/10/21 06:02:29;;;;;;;194.68;42.28;;;12.40;99.90;;;;;;5040951;28;20052;-67
2022/10/21 06:04:55;;;;;;;145.57;39.47;;;12.30;99.90;;;;;;5038013;28;20511;-69
2022/10/21 06:07:20;;;;;;;166.13;39.60;;;12.40;99.90;;;;;;5043490;28;20427;-68
2022/10/21 06:09:46;;;;;;;142.75;38.80;;;12.30;99.90;;;;;;5040456;28;20060;-68
2022/10/21 06:12:11;;;;;;;160.88;40.80;;;12.30;99.90;;;;;;5041843;28;20095;-69
2022/10/21 06:14:37;;;;;;;190.80;42.17;;;12.40;99.90;;;;;;5044029;28;20049;-68
2022/10/21 06:17:03;;;;;;;165.50;39.35;;;12.40;99.90;;;;;;5044207;28;20090;-68
2022/10/21 06:19:29;;;;;;;177.07;40.65;;;12.40;99.90;;;;;;5044949;28;20040;-68
2022/10/21 06:21:55;;;;;;;166.30;41.08;;;12.40;99.90;;;;;;5043915;28;20123;-68
2022/10/21 06:24:21;;;;;;;248.82;42.75;;;12.40;99.90;;;;;;5037431;28;20531;-68
2022/10/21 06:26:48;;;;;;;164.52;39.50;;;12.50;99.90;;;;;;5070202;28;20037;-68
2022/10/21 06:29:15;;;;;;;249.70;42.17;;;12.40;99.90;;;;;;5041860;28;20119;-68
2022/10/21 06:31:40;;;;;;;142.07;38.22;;;12.50;99.90;;;;;;5025956;28;20039;-68
2022/10/21 06:34:06;;;;;;;143.60;39.72;;;12.50;99.90;;;;;;5038956;28;20041;-68
2022/10/21 06:36:32;;;;;;;173.98;40.33;;;12.60;99.90;;;;;;5043587;28;20066;-68
2022/10/21 06:38:57;;;;;;;186.63;39.75;;;12.50;99.90;;;;;;5041483;28;20047;-68
2022/10/21 06:41:23;;;;;;;168.85;40.88;;;12.50;99.90;;;;;;5037374;28;20892;-68
2022/10/21 06:43:48;;;;;;;146.68;38.28;;;12.60;99.90;;;;;;5039084;28;20041;-68
2022/10/21 06:46:15;;;;;;;154.48;39.83;;;12.60;99.90;;;;;;5041587;28;20431;-68
2022/10/21 06:48:41;;;;;;;137.40;37.08;;;12.60;99.90;;;;;;5040618;28;20037;-68
2022/10/21 06:51:18;;;;;;;178.68;39.45;;;12.70;99.90;;;;;;5034599;28;20036;-68
2022/10/21 06:53:44;;;;;;;158.57;39.90;;;12.60;99.90;;;;;;5072906;28;20044;-69
2022/10/21 06:56:15;;;;;;;173.02;41.08;;;12.50;99.90;;;;;;5042727;28;20090;-68
2022/10/21 06:58:45;;;;;;;164.05;40.67;;;12.60;99.90;;;;;;5042781;28;20099;-68
2022/10/21 07:01:14;;;;;;;181.15;39.55;;;12.60;99.90;;;;;;5039790;28;20053;-68
2022/10/21 07:03:40;;;;;;;193.13;41.80;;;12.60;99.90;;;;;;5029641;28;20049;-68
2022/10/21 07:06:05;;;;;;;138.82;36.92;;;12.50;99.90;;;;;;5041937;28;20047;-68
2022/10/21 07:08:32;;;;;;;158.32;38.20;;;12.60;99.90;;;;;;5039388;28;20452;-68
2022/10/21 07:10:58;;;;;;;164.40;38.38;;;12.50;99.90;;;;;;5071025;28;20542;-68
2022/10/21 07:13:24;;;;;;;147.73;37.88;;;12.50;99.90;;;;;;5036749;28;20037;-68
2022/10/21 07:16:06;;;;;;;156.30;38.80;;;12.50;99.90;;;;;;5039473;28;20033;-68
2022/10/21 07:18:32;;;;;;;150.75;38.00;;;12.50;99.90;;;;;;5044607;28;20406;-68
2022/10/21 07:21:07;;;;;;;142.02;36.70;;;12.40;99.90;;;;;;5072034;28;20055;-68
2022/10/21 07:23:33;;;;;;;138.50;37.13;;;12.40;99.90;;;;;;5039054;28;20403;-68
2022/10/21 07:26:02;;;;;;;114.70;34.58;;;12.40;99.90;;;;;;5036634;28;20049;-68
2022/10/21 07:28:28;;;;;;;141.65;37.88;;;12.50;99.90;;;;;;5039375;28;20403;-68
2022/10/21 07:30:53;;;;;;;126.90;35.35;;;12.50;99.90;;;;;;5035324;28;20049;-68
2022/10/21 07:33:19;;;;;;;129.50;36.75;;;12.40;99.90;;;;;;5048113;28;20048;-67
2022/10/21 07:35:44;;;;;;;148.82;38.03;;;12.50;99.90;;;;;;5048790;28;20045;-68
2022/10/21 07:38:11;;;;;;;129.27;38.15;;;12.50;99.90;;;;;;5049138;28;20037;-68
2022/10/21 07:40:41;;;;;;;172.20;37.83;;;12.40;99.90;;;;;;5047914;28;20086;-68
2022/10/21 07:43:08;;;;;;;148.48;37.85;;;12.40;99.90;;;;;;5044524;28;20048;-68
2022/10/21 07:45:38;;;;;;;126.32;35.60;;;12.60;99.90;;;;;;5041790;28;20491;-68
2022/10/21 07:48:04;;;;;;;157.27;37.88;;;12.50;99.90;;;;;;5036361;28;20053;-67
2022/10/21 07:50:29;;;;;;;138.63;36.05;;;12.70;99.90;;;;;;5040064;28;20044;-68
2022/10/21 07:52:55;;;;;;;126.45;37.10;;;12.70;99.90;;;;;;5038701;28;20071;-68
2022/10/21 07:55:21;;;;;;;140.18;38.53;;;12.80;99.90;;;;;;5038870;28;20068;-68
2022/10/21 07:57:46;;;;;;;130.98;38.20;;;12.90;99.90;;;;;;5040027;28;20516;-68
2022/10/21 08:00:12;;;;;;;147.75;38.67;;;13.00;99.90;;;;;;5038827;28;20048;-67
2022/10/21 08:02:37;;;;;;;140.43;38.08;;;12.90;99.90;;;;;;5047883;28;20492;-67
2022/10/21 08:05:03;;;;;;;143.05;39.10;;;13.20;99.90;;;;;;5042281;28;20126;-68
2022/10/21 08:07:33;;;;;;;172.52;39.90;;;13.20;99.90;;;;;;5028704;28;20049;-68
2022/10/21 08:09:59;;;;;;;125.22;36.35;;;13.30;99.90;;;;;;5070328;28;20061;-67
2022/10/21 08:12:24;;;;;;;148.88;38.40;;;13.40;99.90;;;;;;5044809;28;20041;-68
2022/10/21 08:14:50;;;;;;;123.00;36.08;;;13.50;99.90;;;;;;5043587;28;21811;-67
2022/10/21 08:17:16;;;;;;;131.48;37.05;;;13.70;99.90;;;;;;5049107;28;20127;-67
2022/10/21 08:19:42;;;;;;;144.90;37.40;;;13.80;99.90;;;;;;5046740;28;20090;-68
2022/10/21 08:22:08;;;;;;;146.02;38.15;;;13.80;99.90;;;;;;5043249;28;20147;-68
2022/10/21 08:24:34;;;;;;;134.05;38.03;;;13.80;99.90;;;;;;5042896;28;20037;-67
2022/10/21 08:27:00;;;;;;;126.35;37.20;;;14.00;99.90;;;;;;5055980;28;20033;-67
2022/10/21 08:29:25;;;;;;;120.85;36.47;;;14.00;99.90;;;;;;5049572;28;20072;-66
2022/10/21 08:31:55;;;;;;;138.32;36.05;;;14.10;99.90;;;;;;5045067;28;20040;-67
2022/10/21 08:34:21;;;;;;;127.00;36.42;;;14.20;99.90;;;;;;5070656;28;20049;-67
2022/10/21 08:36:47;;;;;;;138.38;37.83;;;14.20;99.90;;;;;;5042887;28;20036;-67
2022/10/21 08:39:14;;;;;;;131.63;36.75;;;14.30;99.90;;;;;;5041415;28;20040;-67
2022/10/21 08:41:51;;;;;;;131.20;35.15;;;14.30;99.90;;;;;;5039464;28;20112;-68
2022/10/21 08:44:26;;;;;;;123.03;34.60;;;14.30;99.90;;;;;;5041522;28;20136;-68
2022/10/21 08:47:09;;;;;;;127.50;34.40;;;14.60;99.90;;;;;;5037744;28;20476;-67
2022/10/21 08:50:10;;;;;;;129.43;34.35;;;14.70;99.90;;;;;;5074711;28;20507;-67
2022/10/21 08:53:02;;;;;;;106.88;33.25;;;14.70;99.90;;;;;;5033137;28;20090;-68
2022/10/21 08:55:33;;;;;;;104.57;32.28;;;14.70;99.90;;;;;;5011080;28;20041;-67
2022/10/21 08:58:00;;;;;;;103.07;32.60;;;14.80;99.90;;;;;;5050610;28;20036;-67
2022/10/21 09:00:39;;;;;;;114.13;33.10;;;14.90;99.90;;;;;;5049001;28;20499;-68
2022/10/21 09:03:13;;;;;;;109.25;32.15;;;15.00;99.90;;;;;;5047145;28;20288;-69
2022/10/21 09:06:06;;;;;;;110.72;32.00;;;15.00;99.90;;;;;;5039769;28;20465;-68
2022/10/21 09:08:49;;;;;;;108.30;29.52;;;15.00;99.90;;;;;;5040795;28;20422;-68
2022/10/21 09:11:32;;;;;;;111.82;30.92;;;15.10;99.90;;;;;;5046737;28;20080;-68
2022/10/21 09:13:57;;;;;;;;;;;15.00;99.90;;;;;;5043405;28;20412;-69
2022/10/21 09:16:42;;;;;;;93.45;30.08;;;15.00;99.90;;;;;;5046729;28;19917;-69
2022/10/21 09:19:18;;;;;;;99.07;29.02;;;15.00;99.90;;;;;;5043508;28;20052;-69
2022/10/21 09:22:22;;;;;;;103.90;29.45;;;15.10;99.90;;;;;;5045475;28;20053;-69
2022/10/21 09:24:57;;;;;;;86.18;28.55;;;15.20;99.90;;;;;;5048196;28;20049;-68
2022/10/21 09:27:23;;;;;;;103.95;29.33;;;15.30;99.90;;;;;;5050831;28;20045;-69
2022/10/21 09:29:57;;;;;;;86.63;28.80;;;15.30;99.90;;;;;;5039889;28;20390;-67
2022/10/21 09:32:27;;;;;;;84.15;27.40;;;15.30;99.90;;;;;;5048169;28;20047;-68
2022/10/21 09:35:24;;;;;;;81.90;27.10;;;15.50;99.90;;;;;;5046174;28;20045;-69
2022/10/21 09:37:59;;;;;;;82.45;25.70;;;15.30;99.90;;;;;;5030897;28;20507;-68
2022/10/21 09:40:29;;;;;;;80.18;25.77;;;15.40;99.90;;;;;;5073286;28;20048;-68
2022/10/21 09:42:57;;;;;;;80.38;27.15;;;15.50;99.90;;;;;;5050679;28;20574;-69
2022/10/21 09:45:37;;;;;;;78.65;26.33;;;15.40;99.90;;;;;;5048828;28;20079;-69
2022/10/21 09:48:18;;;;;;;87.63;25.83;;;15.60;99.90;;;;;;5049953;28;20116;-66
2022/10/21 09:50:57;;;;;;;78.07;23.90;;;15.60;99.90;;;;;;5044303;28;20041;-68
2022/10/21 09:53:57;;;;;;;62.95;22.27;;;15.50;99.90;;;;;;5045531;28;20419;-68
2022/10/21 09:56:26;;;;;;;62.45;23.80;;;15.50;99.90;;;;;;5078501;28;20522;-67
2022/10/21 09:59:07;;;;;;;73.50;23.45;;;15.60;99.90;;;;;;5049558;28;20045;-68
2022/10/21 10:01:34;;;;;;;69.47;22.48;;;15.80;99.90;;;;;;5048680;28;20095;-68
2022/10/21 10:04:09;;;;;;;62.97;21.90;;;15.70;99.90;;;;;;5050732;28;20116;-68
2022/10/21 10:06:41;;;;;;;60.85;20.80;;;15.80;99.90;;;;;;5047952;28;20044;-67
2022/10/21 10:09:14;;;;;;;53.22;20.05;;;15.90;99.90;;;;;;5034358;28;20799;-67
2022/10/21 10:11:53;;;;;;;67.55;22.90;;;15.90;99.90;;;;;;5040671;28;20045;-68
2022/10/21 10:14:35;;;;;;;57.83;20.00;;;15.80;99.90;;;;;;5045887;28;20049;-67
2022/10/21 10:17:20;;;;;;;72.27;21.87;;;15.90;99.90;;;;;;5047755;28;20503;-67
2022/10/21 10:20:04;;;;;;;62.97;21.38;;;16.10;99.90;;;;;;5048526;28;20048;-66
2022/10/21 10:22:36;;;;;;;52.03;20.58;;;16.10;99.90;;;;;;5047948;28;20102;-67
2022/10/21 10:25:11;;;;;;;53.95;20.13;;;16.10;99.90;;;;;;5044674;28;20072;-66
2022/10/21 10:27:53;;;;;;;61.38;20.58;;;16.00;99.90;;;;;;5049599;28;20041;-67
2022/10/21 10:30:19;;;;;;;;;;;16.00;99.90;;;;;;5034691;28;20041;-67
2022/10/21 10:32:46;;;;;;;52.30;18.75;;;16.00;99.90;;;;;;5059896;28;19960;-68
2022/10/21 10:35:32;;;;;;;58.03;19.25;;;16.00;99.90;;;;;;5032412;28;20373;-67
2022/10/21 10:38:01;;;;;;;57.08;19.48;;;16.10;99.90;;;;;;5043530;28;20102;-66
2022/10/21 10:40:37;;;;;;;55.42;19.15;;;16.10;99.90;;;;;;5046734;28;20041;-67
2022/10/21 10:43:12;;;;;;;60.50;19.77;;;16.20;99.90;;;;;;5046112;28;20132;-67
2022/10/21 10:45:44;;;;;;;59.22;21.02;;;16.20;99.90;;;;;;5047938;28;20041;-67
2022/10/21 10:48:20;;;;;;;54.67;19.13;;;16.20;99.90;;;;;;5029954;28;20041;-67
2022/10/21 10:50:49;;;;;;;56.17;20.10;;;16.40;99.90;;;;;;5044266;28;20095;-67
2022/10/21 10:53:22;;;;;;;61.80;20.25;;;16.30;99.90;;;;;;5033064;28;20037;-67
2022/10/21 10:56:19;;;;;;;57.08;19.48;;;16.50;99.90;;;;;;5038192;28;20040;-67
2022/10/21 10:58:55;;;;;;;57.50;19.45;;;16.40;99.90;;;;;;5044298;28;20045;-67
2022/10/21 11:01:27;;;;;;;50.47;19.13;;;16.30;99.90;;;;;;5034865;28;20432;-67
2022/10/21 11:03:59;;;;;;;54.63;19.50;;;16.50;99.90;;;;;;5039764;28;20106;-67
2022/10/21 11:06:40;;;;;;;53.28;19.40;;;16.40;99.90;;;;;;5047778;28;20040;-67
2022/10/21 11:09:07;;;;;;;54.00;18.45;;;16.40;99.90;;;;;;5047674;28;20045;-67
2022/10/21 11:11:39;;;;;;;54.08;18.80;;;16.50;99.90;;;;;;5038900;28;20045;-67
2022/10/21 11:14:12;;;;;;;50.00;18.30;;;16.50;99.90;;;;;;5036688;28;20049;-67
2022/10/21 11:17:12;;;;;;;52.42;18.45;;;16.60;99.90;;;;;;5048068;28;20388;-67
2022/10/21 11:20:00;;;;;;;46.70;18.73;;;16.60;99.90;;;;;;5043671;28;20088;-67
2022/10/21 11:22:43;;;;;;;48.42;18.35;;;16.50;99.90;;;;;;5072465;28;20442;-66
2022/10/21 11:25:42;;;;;;;45.58;18.35;;;16.50;99.90;;;;;;5052313;28;20052;-66
2022/10/21 11:28:10;;;;;;;58.50;19.45;;;16.60;99.90;;;;;;5028910;28;20055;-67
2022/10/21 11:31:14;;;;;;;51.90;17.95;;;16.70;99.90;;;;;;5046896;28;20431;-67
2022/10/21 11:33:58;;;;;;;48.50;17.83;;;16.70;99.90;;;;;;5046285;28;20084;-66
2022/10/21 11:36:41;;;;;;;50.55;17.92;;;16.60;99.90;;;;;;5033744;28;20041;-67
2022/10/21 11:39:38;;;;;;;49.50;17.00;;;16.60;99.90;;;;;;5029062;28;20050;-66
2022/10/21 11:42:22;;;;;;;46.38;16.80;;;16.70;99.90;;;;;;5036039;28;20041;-66
2022/10/21 11:45:25;;;;;;;57.17;17.08;;;16.60;99.90;;;;;;5028838;28;20377;-67
2022/10/21 11:48:18;;;;;;;48.72;17.90;;;16.80;99.90;;;;;;5053736;28;20045;-66
2022/10/21 11:50:59;;;;;;;55.33;17.83;;;16.70;99.90;;;;;;5046618;28;20087;-67
2022/10/21 11:53:46;;;;;;;53.20;18.02;;;16.80;99.90;;;;;;5039643;28;20152;-67
2022/10/21 11:56:27;;;;;;;55.05;19.42;;;16.90;99.90;;;;;;5036379;28;20769;-66
2022/10/21 11:59:11;;;;;;;53.97;18.45;;;16.90;99.90;;;;;;5044357;28;20052;-67
2022/10/21 12:02:00;;;;;;;49.17;17.65;;;16.80;99.90;;;;;;5043815;28;20037;-67
2022/10/21 12:04:37;;;;;;;47.05;16.45;;;16.80;99.90;;;;;;5046506;28;20045;-67
2022/10/21 12:07:35;;;;;;;51.42;16.45;;;16.90;99.90;;;;;;5026169;28;20052;-67
2022/10/21 12:10:19;;;;;;;48.00;16.70;;;16.80;99.90;;;;;;5058852;28;20048;-67
2022/10/21 12:12:48;;;;;;;56.03;16.83;;;16.80;99.90;;;;;;5041991;28;20052;-67
2022/10/21 12:15:20;;;;;;;47.63;15.82;;;16.90;99.90;;;;;;5049601;28;20040;-67
2022/10/21 12:17:48;;;;;;;41.22;15.35;;;16.80;99.90;;;;;;5042314;28;20063;-67
2022/10/21 12:20:24;;;;;;;45.47;15.98;;;16.80;99.90;;;;;;5031686;28;20077;-66
2022/10/21 12:22:55;;;;;;;42.97;15.32;;;16.80;99.90;;;;;;5050059;28;20052;-66
2022/10/21 12:25:55;;;;;;;39.47;15.70;;;16.90;99.90;;;;;;5049316;28;20127;-67
2022/10/21 12:28:36;;;;;;;46.42;16.73;;;16.80;99.90;;;;;;5032585;28;20042;-67
2022/10/21 12:31:29;;;;;;;45.33;16.45;;;16.90;99.90;;;;;;5041460;28;20053;-66
2022/10/21 12:33:55;;;;;;;53.90;17.27;;;16.90;99.90;;;;;;5035451;28;20543;-66
2022/10/21 12:36:39;;;;;;;46.50;16.77;;;16.90;99.90;;;;;;5050568;28;20167;-66
2022/10/21 12:39:11;;;;;;;48.97;16.65;;;16.90;99.90;;;;;;5051089;28;20124;-67
2022/10/21 12:41:38;;;;;;;49.45;16.70;;;16.80;99.90;;;;;;5042757;28;20143;-67